sensor_id;sensor_type;location;lat;lon;timestamp;P1;durP1;ratioP1;P2;durP2;ratioP2
62740;SDS011;48790;55.656;37.702;2023-07-31T00:01:52;11.43;;;5.50;;
62740;SDS011;48790;55.656;37.702;2023-07-31T00:04:17;15.85;;;5.93;;
62740;SDS011;48790;55.656;37.702;2023-07-31T00:06:43;16.30;;;5.75;;
62740;SDS011;48790;55.656;37.702;2023-07-31T00:09:11;16.55;;;6.13;;
62740;SDS011;48790;55.656;37.702;2023-07-31T00:11:37;17.77;;;5.80;;
62740;SDS011;48790;55.656;37.702;2023-07-31T00:14:06;13.73;;;5.40;;
62740;SDS011;48790;55.656;37.702;2023-07-31T00:16:34;17.15;;;5.82;;
62740;SDS011;48790;55.656;37.702;2023-07-31T00:19:03;14.52;;;5.57;;
62740;SDS011;48790;55.656;37.702;2023-07-31T00:21:29;16.23;;;5.80;;
62740;SDS011;48790;55.656;37.702;2023-07-31T00:23:55;14.63;;;5.60;;
62740;SDS011;48790;55.656;37.702;2023-07-31T00:26:20;13.02;;;5.68;;
62740;SDS011;48790;55.656;37.702;2023-07-31T00:28:46;16.10;;;5.47;;
62740;SDS011;48790;55.656;37.702;2023-07-31T00:31:13;12.75;;;5.82;;
62740;SDS011;48790;55.656;37.702;2023-07-31T00:33:39;14.63;;;5.97;;
62740;SDS011;48790;55.656;37.702;2023-07-31T00:36:07;15.57;;;6.60;;
62740;SDS011;48790;55.656;37.702;2023-07-31T00:38:33;17.48;;;6.28;;
62740;SDS011;48790;55.656;37.702;2023-07-31T00:41:03;13.80;;;5.97;;
62740;SDS011;48790;55.656;37.702;2023-07-31T00:43:32;17.13;;;5.75;;
62740;SDS011;48790;55.656;37.702;2023-07-31T00:45:59;18.98;;;5.72;;
62740;SDS011;48790;55.656;37.702;2023-07-31T00:48:25;18.38;;;6.03;;
62740;SDS011;48790;55.656;37.702;2023-07-31T00:50:53;13.00;;;5.38;;
62740;SDS011;48790;55.656;37.702;2023-07-31T00:53:21;16.98;;;6.05;;
62740;SDS011;48790;55.656;37.702;2023-07-31T00:55:49;13.45;;;5.70;;
62740;SDS011;48790;55.656;37.702;2023-07-31T00:58:15;10.70;;;5.43;;
62740;SDS011;48790;55.656;37.702;2023-07-31T01:00:40;15.23;;;6.20;;
62740;SDS011;48790;55.656;37.702;2023-07-31T01:03:06;15.18;;;5.80;;
62740;SDS011;48790;55.656;37.702;2023-07-31T01:08:05;14.75;;;5.97;;
62740;SDS011;48790;55.656;37.702;2023-07-31T01:10:37;13.25;;;5.57;;
62740;SDS011;48790;55.656;37.702;2023-07-31T01:13:06;10.27;;;5.68;;
62740;SDS011;48790;55.656;37.702;2023-07-31T01:15:33;14.65;;;5.95;;
62740;SDS011;48790;55.656;37.702;2023-07-31T01:18:01;13.35;;;5.90;;
62740;SDS011;48790;55.656;37.702;2023-07-31T01:20:30;12.77;;;5.38;;
62740;SDS011;48790;55.656;37.702;2023-07-31T01:26:05;15.93;;;5.25;;
62740;SDS011;48790;55.656;37.702;2023-07-31T01:31:02;9.63;;;5.63;;
62740;SDS011;48790;55.656;37.702;2023-07-31T01:33:31;9.65;;;5.30;;
62740;SDS011;48790;55.656;37.702;2023-07-31T01:35:57;9.65;;;5.20;;
62740;SDS011;48790;55.656;37.702;2023-07-31T01:38:23;15.07;;;5.80;;
62740;SDS011;48790;55.656;37.702;2023-07-31T01:40:52;12.85;;;5.40;;
62740;SDS011;48790;55.656;37.702;2023-07-31T01:43:18;10.05;;;5.55;;
62740;SDS011;48790;55.656;37.702;2023-07-31T01:45:44;14.23;;;5.53;;
62740;SDS011;48790;55.656;37.702;2023-07-31T01:48:10;16.35;;;5.35;;
62740;SDS011;48790;55.656;37.702;2023-07-31T01:50:35;15.23;;;5.63;;
62740;SDS011;48790;55.656;37.702;2023-07-31T01:53:01;13.02;;;5.18;;
62740;SDS011;48790;55.656;37.702;2023-07-31T01:55:27;11.82;;;5.28;;
62740;SDS011;48790;55.656;37.702;2023-07-31T01:57:53;10.23;;;5.22;;
62740;SDS011;48790;55.656;37.702;2023-07-31T02:00:19;13.98;;;4.93;;
62740;SDS011;48790;55.656;37.702;2023-07-31T02:02:44;12.35;;;5.30;;
62740;SDS011;48790;55.656;37.702;2023-07-31T02:05:10;12.60;;;5.40;;
62740;SDS011;48790;55.656;37.702;2023-07-31T02:07:36;9.55;;;4.95;;
62740;SDS011;48790;55.656;37.702;2023-07-31T02:10:02;13.73;;;5.35;;
62740;SDS011;48790;55.656;37.702;2023-07-31T02:12:29;11.25;;;5.43;;
62740;SDS011;48790;55.656;37.702;2023-07-31T02:14:57;10.63;;;5.38;;
62740;SDS011;48790;55.656;37.702;2023-07-31T02:17:30;6.63;;;4.82;;
62740;SDS011;48790;55.656;37.702;2023-07-31T02:19:55;17.08;;;5.70;;
62740;SDS011;48790;55.656;37.702;2023-07-31T02:22:24;11.48;;;5.63;;
62740;SDS011;48790;55.656;37.702;2023-07-31T02:24:49;14.88;;;5.57;;
62740;SDS011;48790;55.656;37.702;2023-07-31T02:27:18;9.50;;;5.28;;
62740;SDS011;48790;55.656;37.702;2023-07-31T02:29:44;8.20;;;5.10;;
62740;SDS011;48790;55.656;37.702;2023-07-31T02:32:11;9.52;;;4.90;;
62740;SDS011;48790;55.656;37.702;2023-07-31T02:34:37;10.98;;;4.72;;
62740;SDS011;48790;55.656;37.702;2023-07-31T02:37:05;6.03;;;4.93;;
62740;SDS011;48790;55.656;37.702;2023-07-31T02:39:33;9.63;;;4.47;;
62740;SDS011;48790;55.656;37.702;2023-07-31T02:41:59;7.78;;;4.95;;
62740;SDS011;48790;55.656;37.702;2023-07-31T02:44:25;12.77;;;4.88;;
62740;SDS011;48790;55.656;37.702;2023-07-31T02:46:51;10.07;;;5.10;;
62740;SDS011;48790;55.656;37.702;2023-07-31T02:49:17;11.70;;;4.50;;
62740;SDS011;48790;55.656;37.702;2023-07-31T02:51:44;8.70;;;4.97;;
62740;SDS011;48790;55.656;37.702;2023-07-31T02:54:10;11.32;;;5.00;;
62740;SDS011;48790;55.656;37.702;2023-07-31T02:56:36;12.15;;;5.03;;
62740;SDS011;48790;55.656;37.702;2023-07-31T02:59:01;14.63;;;5.90;;
62740;SDS011;48790;55.656;37.702;2023-07-31T03:01:27;6.82;;;4.60;;
62740;SDS011;48790;55.656;37.702;2023-07-31T03:03:53;13.73;;;5.50;;
62740;SDS011;48790;55.656;37.702;2023-07-31T03:06:19;16.00;;;5.40;;
62740;SDS011;48790;55.656;37.702;2023-07-31T03:08:45;11.80;;;6.13;;
62740;SDS011;48790;55.656;37.702;2023-07-31T03:11:13;9.68;;;6.45;;
62740;SDS011;48790;55.656;37.702;2023-07-31T03:13:42;12.82;;;5.68;;
62740;SDS011;48790;55.656;37.702;2023-07-31T03:16:07;10.10;;;5.20;;
62740;SDS011;48790;55.656;37.702;2023-07-31T03:18:35;9.07;;;5.53;;
62740;SDS011;48790;55.656;37.702;2023-07-31T03:21:01;9.82;;;5.88;;
62740;SDS011;48790;55.656;37.702;2023-07-31T03:23:27;13.98;;;6.65;;
62740;SDS011;48790;55.656;37.702;2023-07-31T03:26:00;14.80;;;6.00;;
62740;SDS011;48790;55.656;37.702;2023-07-31T03:28:31;11.45;;;5.85;;
62740;SDS011;48790;55.656;37.702;2023-07-31T03:30:57;16.35;;;5.93;;
62740;SDS011;48790;55.656;37.702;2023-07-31T03:33:23;18.40;;;6.07;;
62740;SDS011;48790;55.656;37.702;2023-07-31T03:35:50;10.55;;;6.05;;
62740;SDS011;48790;55.656;37.702;2023-07-31T03:38:15;10.05;;;5.82;;
62740;SDS011;48790;55.656;37.702;2023-07-31T03:40:41;21.55;;;6.47;;
62740;SDS011;48790;55.656;37.702;2023-07-31T03:43:11;14.95;;;5.80;;
62740;SDS011;48790;55.656;37.702;2023-07-31T03:45:38;10.57;;;5.60;;
62740;SDS011;48790;55.656;37.702;2023-07-31T03:48:04;10.82;;;4.97;;
62740;SDS011;48790;55.656;37.702;2023-07-31T03:50:33;8.23;;;4.30;;
62740;SDS011;48790;55.656;37.702;2023-07-31T03:53:00;11.45;;;4.47;;
62740;SDS011;48790;55.656;37.702;2023-07-31T03:55:25;9.57;;;4.20;;
62740;SDS011;48790;55.656;37.702;2023-07-31T03:57:51;15.43;;;5.00;;
62740;SDS011;48790;55.656;37.702;2023-07-31T04:00:17;9.88;;;4.38;;
62740;SDS011;48790;55.656;37.702;2023-07-31T04:02:42;7.57;;;3.83;;
62740;SDS011;48790;55.656;37.702;2023-07-31T04:05:08;7.55;;;3.63;;
62740;SDS011;48790;55.656;37.702;2023-07-31T04:07:38;9.93;;;3.83;;
62740;SDS011;48790;55.656;37.702;2023-07-31T04:10:04;6.18;;;3.45;;
62740;SDS011;48790;55.656;37.702;2023-07-31T04:12:29;9.32;;;3.35;;
62740;SDS011;48790;55.656;37.702;2023-07-31T04:14:55;6.75;;;3.45;;
62740;SDS011;48790;55.656;37.702;2023-07-31T04:17:24;9.10;;;3.50;;
62740;SDS011;48790;55.656;37.702;2023-07-31T04:19:52;8.65;;;3.53;;
62740;SDS011;48790;55.656;37.702;2023-07-31T04:22:18;8.52;;;3.08;;
62740;SDS011;48790;55.656;37.702;2023-07-31T04:24:45;5.40;;;3.38;;
62740;SDS011;48790;55.656;37.702;2023-07-31T04:27:11;12.98;;;3.65;;
62740;SDS011;48790;55.656;37.702;2023-07-31T04:29:37;7.35;;;3.00;;
62740;SDS011;48790;55.656;37.702;2023-07-31T04:32:05;6.50;;;3.20;;
62740;SDS011;48790;55.656;37.702;2023-07-31T04:34:30;5.38;;;2.90;;
62740;SDS011;48790;55.656;37.702;2023-07-31T04:36:56;6.57;;;2.92;;
62740;SDS011;48790;55.656;37.702;2023-07-31T04:39:22;6.30;;;2.70;;
62740;SDS011;48790;55.656;37.702;2023-07-31T04:41:48;5.47;;;2.75;;
62740;SDS011;48790;55.656;37.702;2023-07-31T04:44:14;5.43;;;2.67;;
62740;SDS011;48790;55.656;37.702;2023-07-31T04:46:39;5.03;;;2.83;;
62740;SDS011;48790;55.656;37.702;2023-07-31T04:49:05;6.57;;;3.03;;
62740;SDS011;48790;55.656;37.702;2023-07-31T04:51:30;5.70;;;2.83;;
62740;SDS011;48790;55.656;37.702;2023-07-31T04:53:58;3.88;;;2.70;;
62740;SDS011;48790;55.656;37.702;2023-07-31T04:56:24;5.10;;;2.60;;
62740;SDS011;48790;55.656;37.702;2023-07-31T04:58:49;4.35;;;2.45;;
62740;SDS011;48790;55.656;37.702;2023-07-31T05:01:16;5.22;;;2.90;;
62740;SDS011;48790;55.656;37.702;2023-07-31T05:03:42;7.90;;;2.80;;
62740;SDS011;48790;55.656;37.702;2023-07-31T05:06:10;6.20;;;2.40;;
62740;SDS011;48790;55.656;37.702;2023-07-31T05:08:37;12.32;;;2.78;;
62740;SDS011;48790;55.656;37.702;2023-07-31T05:11:05;9.13;;;2.42;;
62740;SDS011;48790;55.656;37.702;2023-07-31T05:13:34;8.32;;;2.28;;
62740;SDS011;48790;55.656;37.702;2023-07-31T05:16:02;5.20;;;2.72;;
62740;SDS011;48790;55.656;37.702;2023-07-31T05:18:27;7.60;;;3.05;;
62740;SDS011;48790;55.656;37.702;2023-07-31T05:20:56;7.05;;;2.92;;
62740;SDS011;48790;55.656;37.702;2023-07-31T05:23:22;9.23;;;2.70;;
62740;SDS011;48790;55.656;37.702;2023-07-31T05:25:47;4.30;;;2.45;;
62740;SDS011;48790;55.656;37.702;2023-07-31T05:28:15;5.13;;;2.50;;
62740;SDS011;48790;55.656;37.702;2023-07-31T05:30:41;11.57;;;2.70;;
62740;SDS011;48790;55.656;37.702;2023-07-31T05:33:07;5.70;;;1.92;;
62740;SDS011;48790;55.656;37.702;2023-07-31T05:35:32;4.55;;;2.03;;
62740;SDS011;48790;55.656;37.702;2023-07-31T05:37:58;8.45;;;2.28;;
62740;SDS011;48790;55.656;37.702;2023-07-31T05:40:24;5.13;;;2.25;;
62740;SDS011;48790;55.656;37.702;2023-07-31T05:42:49;6.72;;;2.47;;
62740;SDS011;48790;55.656;37.702;2023-07-31T05:45:15;3.38;;;1.92;;
62740;SDS011;48790;55.656;37.702;2023-07-31T05:47:43;5.10;;;2.00;;
62740;SDS011;48790;55.656;37.702;2023-07-31T05:50:12;9.93;;;2.22;;
62740;SDS011;48790;55.656;37.702;2023-07-31T05:52:39;7.18;;;2.17;;
62740;SDS011;48790;55.656;37.702;2023-07-31T05:55:05;6.57;;;2.17;;
62740;SDS011;48790;55.656;37.702;2023-07-31T05:57:31;13.75;;;2.42;;
62740;SDS011;48790;55.656;37.702;2023-07-31T05:59:56;5.43;;;2.30;;
62740;SDS011;48790;55.656;37.702;2023-07-31T06:02:24;4.72;;;1.77;;
62740;SDS011;48790;55.656;37.702;2023-07-31T06:04:50;7.65;;;2.08;;
62740;SDS011;48790;55.656;37.702;2023-07-31T06:07:18;3.72;;;1.90;;
62740;SDS011;48790;55.656;37.702;2023-07-31T06:09:44;8.23;;;1.88;;
62740;SDS011;48790;55.656;37.702;2023-07-31T06:12:11;4.97;;;1.83;;
62740;SDS011;48790;55.656;37.702;2023-07-31T06:14:39;2.85;;;1.83;;
62740;SDS011;48790;55.656;37.702;2023-07-31T06:17:05;2.95;;;1.90;;
62740;SDS011;48790;55.656;37.702;2023-07-31T06:19:31;4.20;;;1.90;;
62740;SDS011;48790;55.656;37.702;2023-07-31T06:21:56;4.15;;;1.90;;
62740;SDS011;48790;55.656;37.702;2023-07-31T06:24:22;5.68;;;1.65;;
62740;SDS011;48790;55.656;37.702;2023-07-31T06:26:49;5.20;;;1.65;;
62740;SDS011;48790;55.656;37.702;2023-07-31T06:29:16;5.65;;;1.70;;
62740;SDS011;48790;55.656;37.702;2023-07-31T06:31:41;6.78;;;1.92;;
62740;SDS011;48790;55.656;37.702;2023-07-31T06:34:09;8.82;;;1.92;;
62740;SDS011;48790;55.656;37.702;2023-07-31T06:36:37;8.80;;;1.80;;
62740;SDS011;48790;55.656;37.702;2023-07-31T06:39:05;6.80;;;2.15;;
62740;SDS011;48790;55.656;37.702;2023-07-31T06:41:31;4.32;;;1.38;;
62740;SDS011;48790;55.656;37.702;2023-07-31T06:43:56;2.95;;;1.60;;
62740;SDS011;48790;55.656;37.702;2023-07-31T06:46:22;4.35;;;1.55;;
62740;SDS011;48790;55.656;37.702;2023-07-31T06:48:48;2.83;;;1.70;;
62740;SDS011;48790;55.656;37.702;2023-07-31T06:51:16;8.30;;;1.70;;
62740;SDS011;48790;55.656;37.702;2023-07-31T06:53:42;6.53;;;1.70;;
62740;SDS011;48790;55.656;37.702;2023-07-31T06:56:10;3.45;;;1.50;;
62740;SDS011;48790;55.656;37.702;2023-07-31T06:58:36;6.82;;;1.60;;
62740;SDS011;48790;55.656;37.702;2023-07-31T07:01:01;3.35;;;1.73;;
62740;SDS011;48790;55.656;37.702;2023-07-31T07:03:27;4.03;;;1.90;;
62740;SDS011;48790;55.656;37.702;2023-07-31T07:05:53;3.45;;;1.40;;
62740;SDS011;48790;55.656;37.702;2023-07-31T07:08:19;4.88;;;1.38;;
62740;SDS011;48790;55.656;37.702;2023-07-31T07:10:44;5.53;;;1.50;;
62740;SDS011;48790;55.656;37.702;2023-07-31T07:13:13;4.90;;;1.30;;
62740;SDS011;48790;55.656;37.702;2023-07-31T07:15:39;2.55;;;1.30;;
62740;SDS011;48790;55.656;37.702;2023-07-31T07:18:07;3.65;;;1.55;;
62740;SDS011;48790;55.656;37.702;2023-07-31T07:20:37;3.20;;;1.40;;
62740;SDS011;48790;55.656;37.702;2023-07-31T07:23:05;4.47;;;1.52;;
62740;SDS011;48790;55.656;37.702;2023-07-31T07:25:33;10.38;;;1.90;;
62740;SDS011;48790;55.656;37.702;2023-07-31T07:28:01;3.40;;;1.50;;
62740;SDS011;48790;55.656;37.702;2023-07-31T07:30:27;8.90;;;1.50;;
62740;SDS011;48790;55.656;37.702;2023-07-31T07:32:53;4.13;;;1.50;;
62740;SDS011;48790;55.656;37.702;2023-07-31T07:35:19;1.63;;;1.40;;
62740;SDS011;48790;55.656;37.702;2023-07-31T07:37:50;3.58;;;1.50;;
62740;SDS011;48790;55.656;37.702;2023-07-31T07:40:19;3.10;;;1.40;;
62740;SDS011;48790;55.656;37.702;2023-07-31T07:42:45;5.47;;;1.40;;
62740;SDS011;48790;55.656;37.702;2023-07-31T07:45:11;2.50;;;1.33;;
62740;SDS011;48790;55.656;37.702;2023-07-31T07:47:37;3.28;;;1.60;;
62740;SDS011;48790;55.656;37.702;2023-07-31T07:50:03;8.85;;;1.63;;
62740;SDS011;48790;55.656;37.702;2023-07-31T07:52:29;3.53;;;1.40;;
62740;SDS011;48790;55.656;37.702;2023-07-31T07:54:58;2.15;;;1.30;;
62740;SDS011;48790;55.656;37.702;2023-07-31T07:57:24;6.82;;;1.30;;
62740;SDS011;48790;55.656;37.702;2023-07-31T07:59:49;3.28;;;1.50;;
62740;SDS011;48790;55.656;37.702;2023-07-31T08:02:18;2.50;;;1.40;;
62740;SDS011;48790;55.656;37.702;2023-07-31T08:04:44;1.92;;;1.35;;
62740;SDS011;48790;55.656;37.702;2023-07-31T08:07:13;4.10;;;1.48;;
62740;SDS011;48790;55.656;37.702;2023-07-31T08:09:41;3.00;;;1.35;;
62740;SDS011;48790;55.656;37.702;2023-07-31T08:12:10;2.63;;;1.23;;
62740;SDS011;48790;55.656;37.702;2023-07-31T08:14:38;2.95;;;1.50;;
62740;SDS011;48790;55.656;37.702;2023-07-31T08:17:06;2.28;;;1.50;;
62740;SDS011;48790;55.656;37.702;2023-07-31T08:19:35;2.03;;;1.52;;
62740;SDS011;48790;55.656;37.702;2023-07-31T08:22:03;5.07;;;1.33;;
62740;SDS011;48790;55.656;37.702;2023-07-31T08:24:31;2.22;;;1.40;;
62740;SDS011;48790;55.656;37.702;2023-07-31T08:26:59;3.38;;;1.40;;
62740;SDS011;48790;55.656;37.702;2023-07-31T08:29:28;3.42;;;1.30;;
62740;SDS011;48790;55.656;37.702;2023-07-31T08:31:54;4.38;;;1.50;;
62740;SDS011;48790;55.656;37.702;2023-07-31T08:34:20;4.25;;;1.25;;
62740;SDS011;48790;55.656;37.702;2023-07-31T08:36:46;4.82;;;1.67;;
62740;SDS011;48790;55.656;37.702;2023-07-31T08:39:11;4.50;;;1.40;;
62740;SDS011;48790;55.656;37.702;2023-07-31T08:41:37;3.83;;;1.30;;
62740;SDS011;48790;55.656;37.702;2023-07-31T08:44:04;4.43;;;1.33;;
62740;SDS011;48790;55.656;37.702;2023-07-31T08:46:32;2.80;;;1.40;;
62740;SDS011;48790;55.656;37.702;2023-07-31T08:49:18;2.85;;;1.60;;
62740;SDS011;48790;55.656;37.702;2023-07-31T08:51:45;4.43;;;2.20;;
62740;SDS011;48790;55.656;37.702;2023-07-31T08:54:13;4.30;;;1.50;;
62740;SDS011;48790;55.656;37.702;2023-07-31T08:56:39;7.40;;;1.60;;
62740;SDS011;48790;55.656;37.702;2023-07-31T08:59:05;5.47;;;1.48;;
62740;SDS011;48790;55.656;37.702;2023-07-31T09:01:30;4.03;;;1.60;;
62740;SDS011;48790;55.656;37.702;2023-07-31T09:04:00;4.30;;;1.80;;
62740;SDS011;48790;55.656;37.702;2023-07-31T09:06:29;3.33;;;1.52;;
62740;SDS011;48790;55.656;37.702;2023-07-31T09:08:55;3.20;;;1.60;;
62740;SDS011;48790;55.656;37.702;2023-07-31T09:11:21;2.63;;;1.70;;
62740;SDS011;48790;55.656;37.702;2023-07-31T09:13:47;3.78;;;1.60;;
62740;SDS011;48790;55.656;37.702;2023-07-31T09:16:14;3.75;;;1.77;;
62740;SDS011;48790;55.656;37.702;2023-07-31T09:18:54;4.88;;;1.73;;
62740;SDS011;48790;55.656;37.702;2023-07-31T09:21:22;4.90;;;1.65;;
62740;SDS011;48790;55.656;37.702;2023-07-31T09:23:49;6.20;;;1.73;;
62740;SDS011;48790;55.656;37.702;2023-07-31T09:26:29;4.20;;;1.65;;
62740;SDS011;48790;55.656;37.702;2023-07-31T09:28:56;11.70;;;1.80;;
62740;SDS011;48790;55.656;37.702;2023-07-31T09:31:31;2.92;;;1.60;;
62740;SDS011;48790;55.656;37.702;2023-07-31T09:34:01;14.15;;;2.53;;
62740;SDS011;48790;55.656;37.702;2023-07-31T09:36:29;4.97;;;1.98;;
62740;SDS011;48790;55.656;37.702;2023-07-31T09:38:56;4.22;;;1.92;;
62740;SDS011;48790;55.656;37.702;2023-07-31T09:41:21;2.80;;;1.67;;
62740;SDS011;48790;55.656;37.702;2023-07-31T09:43:53;2.88;;;1.60;;
62740;SDS011;48790;55.656;37.702;2023-07-31T09:46:22;7.43;;;1.80;;
62740;SDS011;48790;55.656;37.702;2023-07-31T09:48:48;3.00;;;1.60;;
62740;SDS011;48790;55.656;37.702;2023-07-31T09:51:13;4.15;;;1.80;;
62740;SDS011;48790;55.656;37.702;2023-07-31T09:53:39;6.53;;;2.00;;
62740;SDS011;48790;55.656;37.702;2023-07-31T09:56:05;2.72;;;1.90;;
62740;SDS011;48790;55.656;37.702;2023-07-31T09:58:31;4.85;;;1.83;;
62740;SDS011;48790;55.656;37.702;2023-07-31T10:03:29;4.45;;;2.00;;
62740;SDS011;48790;55.656;37.702;2023-07-31T10:05:55;3.90;;;2.00;;
62740;SDS011;48790;55.656;37.702;2023-07-31T10:08:23;2.00;;;1.80;;
62740;SDS011;48790;55.656;37.702;2023-07-31T10:10:58;5.93;;;2.30;;
62740;SDS011;48790;55.656;37.702;2023-07-31T10:13:23;5.20;;;2.35;;
62740;SDS011;48790;55.656;37.702;2023-07-31T10:15:50;3.50;;;2.22;;
62740;SDS011;48790;55.656;37.702;2023-07-31T10:18:18;4.70;;;2.15;;
62740;SDS011;48790;55.656;37.702;2023-07-31T10:20:45;3.40;;;2.20;;
62740;SDS011;48790;55.656;37.702;2023-07-31T10:23:11;5.38;;;2.20;;
62740;SDS011;48790;55.656;37.702;2023-07-31T10:25:37;6.25;;;1.90;;
62740;SDS011;48790;55.656;37.702;2023-07-31T10:28:03;6.20;;;2.10;;
62740;SDS011;48790;55.656;37.702;2023-07-31T10:30:31;5.45;;;2.20;;
62740;SDS011;48790;55.656;37.702;2023-07-31T10:33:00;3.35;;;2.30;;
62740;SDS011;48790;55.656;37.702;2023-07-31T10:35:28;3.58;;;1.90;;
62740;SDS011;48790;55.656;37.702;2023-07-31T10:37:54;5.72;;;2.05;;
62740;SDS011;48790;55.656;37.702;2023-07-31T10:40:24;4.53;;;2.05;;
62740;SDS011;48790;55.656;37.702;2023-07-31T10:42:52;4.78;;;1.80;;
62740;SDS011;48790;55.656;37.702;2023-07-31T10:45:33;7.28;;;2.10;;
62740;SDS011;48790;55.656;37.702;2023-07-31T10:48:03;4.32;;;2.25;;
62740;SDS011;48790;55.656;37.702;2023-07-31T10:50:32;4.22;;;1.80;;
62740;SDS011;48790;55.656;37.702;2023-07-31T10:52:58;3.72;;;2.00;;
62740;SDS011;48790;55.656;37.702;2023-07-31T10:55:30;8.38;;;2.30;;
62740;SDS011;48790;55.656;37.702;2023-07-31T10:58:10;8.68;;;2.10;;
62740;SDS011;48790;55.656;37.702;2023-07-31T11:00:43;3.15;;;2.40;;
62740;SDS011;48790;55.656;37.702;2023-07-31T11:03:10;3.93;;;2.30;;
62740;SDS011;48790;55.656;37.702;2023-07-31T11:08:12;5.18;;;2.30;;
62740;SDS011;48790;55.656;37.702;2023-07-31T11:10:41;4.93;;;2.40;;
62740;SDS011;48790;55.656;37.702;2023-07-31T11:13:07;6.05;;;2.40;;
62740;SDS011;48790;55.656;37.702;2023-07-31T11:15:33;3.53;;;2.33;;
62740;SDS011;48790;55.656;37.702;2023-07-31T11:18:02;2.88;;;2.38;;
62740;SDS011;48790;55.656;37.702;2023-07-31T11:20:34;7.80;;;2.50;;
62740;SDS011;48790;55.656;37.702;2023-07-31T11:23:03;6.38;;;2.20;;
62740;SDS011;48790;55.656;37.702;2023-07-31T11:25:30;3.70;;;2.33;;
62740;SDS011;48790;55.656;37.702;2023-07-31T11:27:57;5.75;;;2.25;;
62740;SDS011;48790;55.656;37.702;2023-07-31T11:30:23;3.58;;;2.50;;
62740;SDS011;48790;55.656;37.702;2023-07-31T11:32:49;6.78;;;2.45;;
62740;SDS011;48790;55.656;37.702;2023-07-31T11:35:16;8.02;;;2.47;;
62740;SDS011;48790;55.656;37.702;2023-07-31T11:37:42;3.60;;;2.55;;
62740;SDS011;48790;55.656;37.702;2023-07-31T11:40:08;4.47;;;2.30;;
62740;SDS011;48790;55.656;37.702;2023-07-31T11:42:34;8.07;;;2.60;;
62740;SDS011;48790;55.656;37.702;2023-07-31T11:45:04;3.08;;;2.22;;
62740;SDS011;48790;55.656;37.702;2023-07-31T11:47:29;5.32;;;2.63;;
62740;SDS011;48790;55.656;37.702;2023-07-31T11:49:56;7.45;;;2.40;;
62740;SDS011;48790;55.656;37.702;2023-07-31T11:52:23;3.83;;;2.40;;
62740;SDS011;48790;55.656;37.702;2023-07-31T11:54:51;8.73;;;2.90;;
62740;SDS011;48790;55.656;37.702;2023-07-31T11:57:17;6.90;;;2.50;;
62740;SDS011;48790;55.656;37.702;2023-07-31T11:59:43;6.90;;;2.47;;
62740;SDS011;48790;55.656;37.702;2023-07-31T12:02:09;6.32;;;2.50;;
62740;SDS011;48790;55.656;37.702;2023-07-31T12:04:37;8.95;;;2.90;;
62740;SDS011;48790;55.656;37.702;2023-07-31T12:07:07;6.10;;;2.60;;
62740;SDS011;48790;55.656;37.702;2023-07-31T12:09:32;7.18;;;2.90;;
62740;SDS011;48790;55.656;37.702;2023-07-31T12:12:01;5.18;;;2.60;;
62740;SDS011;48790;55.656;37.702;2023-07-31T12:14:28;5.30;;;2.30;;
62740;SDS011;48790;55.656;37.702;2023-07-31T12:16:59;5.88;;;2.53;;
62740;SDS011;48790;55.656;37.702;2023-07-31T12:19:25;4.55;;;2.65;;
62740;SDS011;48790;55.656;37.702;2023-07-31T12:22:01;7.65;;;2.90;;
62740;SDS011;48790;55.656;37.702;2023-07-31T12:24:28;4.05;;;2.40;;
62740;SDS011;48790;55.656;37.702;2023-07-31T12:26:54;5.85;;;2.53;;
62740;SDS011;48790;55.656;37.702;2023-07-31T12:29:20;3.60;;;2.10;;
62740;SDS011;48790;55.656;37.702;2023-07-31T12:31:46;8.07;;;2.70;;
62740;SDS011;48790;55.656;37.702;2023-07-31T12:34:18;5.93;;;2.65;;
62740;SDS011;48790;55.656;37.702;2023-07-31T12:36:44;4.82;;;2.88;;
62740;SDS011;48790;55.656;37.702;2023-07-31T12:39:10;2.97;;;2.38;;
62740;SDS011;48790;55.656;37.702;2023-07-31T12:41:36;6.97;;;2.83;;
62740;SDS011;48790;55.656;37.702;2023-07-31T12:44:02;9.38;;;3.00;;
62740;SDS011;48790;55.656;37.702;2023-07-31T12:46:29;5.55;;;2.70;;
62740;SDS011;48790;55.656;37.702;2023-07-31T12:48:57;5.97;;;2.53;;
62740;SDS011;48790;55.656;37.702;2023-07-31T12:51:22;13.35;;;2.90;;
62740;SDS011;48790;55.656;37.702;2023-07-31T12:53:48;3.30;;;2.40;;
62740;SDS011;48790;55.656;37.702;2023-07-31T12:56:14;10.70;;;2.95;;
62740;SDS011;48790;55.656;37.702;2023-07-31T12:58:39;6.43;;;2.78;;
62740;SDS011;48790;55.656;37.702;2023-07-31T13:01:05;9.95;;;3.05;;
62740;SDS011;48790;55.656;37.702;2023-07-31T13:03:34;7.35;;;2.80;;
62740;SDS011;48790;55.656;37.702;2023-07-31T13:06:00;4.10;;;2.70;;
62740;SDS011;48790;55.656;37.702;2023-07-31T13:08:25;10.20;;;2.92;;
62740;SDS011;48790;55.656;37.702;2023-07-31T13:10:51;5.47;;;2.78;;
62740;SDS011;48790;55.656;37.702;2023-07-31T13:13:17;8.30;;;2.72;;
62740;SDS011;48790;55.656;37.702;2023-07-31T13:15:43;9.32;;;2.90;;
62740;SDS011;48790;55.656;37.702;2023-07-31T13:18:10;7.20;;;2.67;;
62740;SDS011;48790;55.656;37.702;2023-07-31T13:20:35;6.03;;;2.90;;
62740;SDS011;48790;55.656;37.702;2023-07-31T13:23:01;7.22;;;2.75;;
62740;SDS011;48790;55.656;37.702;2023-07-31T13:25:27;4.88;;;2.65;;
62740;SDS011;48790;55.656;37.702;2023-07-31T13:27:52;6.47;;;2.90;;
62740;SDS011;48790;55.656;37.702;2023-07-31T13:30:20;6.55;;;2.78;;
62740;SDS011;48790;55.656;37.702;2023-07-31T13:32:46;12.07;;;3.13;;
62740;SDS011;48790;55.656;37.702;2023-07-31T13:35:11;8.13;;;2.60;;
62740;SDS011;48790;55.656;37.702;2023-07-31T13:37:37;6.88;;;2.92;;
62740;SDS011;48790;55.656;37.702;2023-07-31T13:40:03;6.20;;;2.83;;
62740;SDS011;48790;55.656;37.702;2023-07-31T13:42:32;6.32;;;2.50;;
62740;SDS011;48790;55.656;37.702;2023-07-31T13:45:01;6.57;;;2.72;;
62740;SDS011;48790;55.656;37.702;2023-07-31T13:47:29;7.47;;;2.67;;
62740;SDS011;48790;55.656;37.702;2023-07-31T13:49:56;5.93;;;2.53;;
62740;SDS011;48790;55.656;37.702;2023-07-31T13:52:22;8.20;;;2.90;;
62740;SDS011;48790;55.656;37.702;2023-07-31T13:54:48;5.22;;;2.70;;
62740;SDS011;48790;55.656;37.702;2023-07-31T13:57:19;7.75;;;2.80;;
62740;SDS011;48790;55.656;37.702;2023-07-31T13:59:53;9.43;;;3.00;;
62740;SDS011;48790;55.656;37.702;2023-07-31T14:02:19;6.80;;;2.75;;
62740;SDS011;48790;55.656;37.702;2023-07-31T14:04:44;14.68;;;2.75;;
62740;SDS011;48790;55.656;37.702;2023-07-31T14:07:10;9.43;;;3.05;;
62740;SDS011;48790;55.656;37.702;2023-07-31T14:09:36;9.05;;;2.90;;
62740;SDS011;48790;55.656;37.702;2023-07-31T14:12:02;9.15;;;2.88;;
62740;SDS011;48790;55.656;37.702;2023-07-31T14:14:31;10.13;;;2.97;;
62740;SDS011;48790;55.656;37.702;2023-07-31T14:16:59;8.75;;;2.83;;
62740;SDS011;48790;55.656;37.702;2023-07-31T14:19:25;6.72;;;2.85;;
62740;SDS011;48790;55.656;37.702;2023-07-31T14:21:53;4.78;;;2.70;;
62740;SDS011;48790;55.656;37.702;2023-07-31T14:24:18;12.07;;;2.95;;
62740;SDS011;48790;55.656;37.702;2023-07-31T14:26:44;10.75;;;2.85;;
62740;SDS011;48790;55.656;37.702;2023-07-31T14:29:10;16.55;;;3.35;;
62740;SDS011;48790;55.656;37.702;2023-07-31T14:31:36;6.60;;;2.60;;
62740;SDS011;48790;55.656;37.702;2023-07-31T14:34:02;5.68;;;3.00;;
62740;SDS011;48790;55.656;37.702;2023-07-31T14:36:30;6.40;;;2.85;;
62740;SDS011;48790;55.656;37.702;2023-07-31T14:38:56;6.75;;;3.05;;
62740;SDS011;48790;55.656;37.702;2023-07-31T14:41:21;8.63;;;2.78;;
62740;SDS011;48790;55.656;37.702;2023-07-31T14:43:47;10.90;;;2.90;;